createdAt,value
2022-11-24T00:01:43.573Z,9.83
2022-11-24T00:06:45.402Z,11.20
2022-11-24T00:11:47.177Z,12.00
2022-11-24T00:16:50.319Z,18.03
2022-11-24T00:21:52.156Z,14.13
2022-11-24T00:26:53.924Z,7.90
2022-11-24T00:31:57.102Z,12.97
2022-11-24T00:36:58.853Z,7.90
2022-11-24T00:42:00.682Z,9.40
2022-11-24T00:47:03.942Z,7.90
2022-11-24T00:52:05.850Z,10.97
2022-11-24T00:57:07.735Z,9.20
2022-11-24T01:02:10.903Z,8.93
2022-11-24T01:07:12.707Z,11.30
2022-11-24T01:12:14.510Z,9.60
2022-11-24T01:17:17.639Z,9.50
2022-11-24T01:22:19.433Z,12.50
2022-11-24T01:27:21.324Z,12.50
2022-11-24T01:32:24.581Z,11.83
2022-11-24T01:37:26.718Z,14.60
2022-11-24T01:42:37.551Z,12.63
2022-11-24T01:47:43.524Z,13.63
2022-11-24T01:52:46.467Z,12.33
2022-11-24T01:57:49.846Z,11.03
2022-11-24T02:02:53.028Z,9.23
2022-11-24T02:07:57.141Z,13.73
2022-11-24T02:13:00.021Z,9.90
2022-11-24T02:18:03.335Z,5.73
2022-11-24T02:23:08.173Z,6.70
2022-11-24T02:28:13.531Z,8.80
2022-11-24T02:33:15.322Z,7.37
2022-11-24T02:38:17.126Z,10.77
2022-11-24T02:43:21.107Z,10.27
2022-11-24T02:48:22.889Z,9.60
2022-11-24T02:53:24.912Z,10.93
2022-11-24T02:58:27.995Z,10.73
2022-11-24T03:03:29.822Z,8.10
2022-11-24T03:08:31.590Z,12.13
2022-11-24T03:13:34.654Z,10.43
2022-11-24T03:18:36.496Z,13.67
2022-11-24T03:23:38.253Z,8.90
2022-11-24T03:28:41.442Z,9.53
2022-11-24T03:33:43.197Z,14.90
2022-11-24T03:38:44.997Z,11.97
2022-11-24T03:43:48.154Z,10.67
2022-11-24T03:48:50.023Z,7.47
2022-11-24T03:53:51.805Z,10.50
2022-11-24T03:58:54.897Z,10.77
2022-11-24T04:03:56.695Z,11.63
2022-11-24T04:08:59.981Z,11.70
2022-11-24T04:14:03.095Z,14.50
2022-11-24T04:19:05.268Z,9.27
2022-11-24T04:24:07.152Z,15.33
2022-11-24T04:29:11.051Z,15.20
2022-11-24T04:34:12.803Z,14.40
2022-11-24T04:39:25.421Z,15.73
2022-11-24T04:44:29.853Z,14.90
2022-11-24T04:49:31.672Z,15.50
2022-11-24T04:54:33.758Z,10.57
2022-11-24T04:59:37.077Z,6.97
2022-11-24T05:04:39.006Z,8.63
2022-11-24T05:10:00.823Z,11.17
2022-11-24T05:15:04.995Z,9.40
2022-11-24T05:20:07.587Z,20.47
2022-11-24T05:25:09.773Z,15.30
2022-11-24T05:30:13.815Z,11.30
2022-11-24T05:35:15.957Z,10.77
2022-11-24T05:40:17.806Z,9.87
2022-11-24T05:45:21.321Z,14.10
2022-11-24T05:50:23.130Z,16.33
2022-11-24T05:55:25.217Z,11.30
2022-11-24T06:00:28.798Z,7.63
2022-11-24T06:05:30.780Z,16.77
2022-11-24T06:10:32.534Z,19.70
2022-11-24T06:15:37.551Z,14.13
2022-11-24T06:20:39.281Z,18.70
2022-11-24T06:25:40.971Z,10.63
2022-11-24T06:30:44.055Z,11.47
2022-11-24T06:35:45.765Z,13.87
2022-11-24T06:40:47.536Z,25.53
2022-11-24T06:45:52.714Z,20.20
2022-11-24T06:50:58.178Z,29.67
2022-11-24T06:56:00.033Z,23.70
2022-11-24T07:01:03.235Z,18.80
2022-11-24T07:06:05.259Z,24.93
2022-11-24T07:11:07.347Z,17.60
2022-11-24T07:16:15.251Z,12.10
2022-11-24T07:21:17.402Z,19.10
2022-11-24T07:26:19.388Z,14.07
2022-11-24T07:31:24.883Z,16.87
2022-11-24T07:36:26.780Z,15.43
2022-11-24T07:41:28.577Z,19.23
2022-11-24T07:46:31.715Z,10.93
2022-11-24T07:51:33.546Z,18.77
2022-11-24T07:56:35.344Z,15.23
2022-11-24T08:01:38.675Z,19.40
2022-11-24T08:06:44.643Z,21.40
2022-11-24T08:11:48.984Z,13.93
2022-11-24T08:16:52.161Z,14.47
2022-11-24T08:21:53.937Z,21.03
2022-11-24T08:26:55.729Z,14.60
2022-11-24T08:31:58.925Z,17.47
2022-11-24T08:37:00.824Z,21.90
2022-11-24T08:42:02.849Z,16.77
2022-11-24T08:47:05.982Z,23.40
2022-11-24T08:52:07.732Z,19.03
2022-11-24T08:57:09.587Z,21.30
2022-11-24T09:02:12.889Z,18.43
2022-11-24T09:07:14.729Z,22.83
2022-11-24T09:12:16.695Z,23.20
2022-11-24T09:17:19.781Z,21.53
2022-11-24T09:22:21.593Z,21.70
2022-11-24T09:27:23.309Z,22.10
2022-11-24T09:32:26.374Z,22.53
2022-11-24T09:37:32.494Z,18.37
2022-11-24T09:42:37.564Z,17.90
2022-11-24T09:47:46.778Z,18.33
2022-11-24T09:52:50.157Z,11.77
2022-11-24T09:57:54.784Z,17.70
2022-11-24T10:02:57.864Z,12.67
2022-11-24T10:08:06.292Z,11.60
2022-11-24T10:13:15.645Z,20.23
2022-11-24T10:18:33.809Z,12.80
2022-11-24T10:23:43.628Z,21.87
2022-11-24T10:28:48.940Z,14.87
2022-11-24T10:33:52.281Z,18.80
2022-11-24T10:38:57.514Z,12.97
2022-11-24T10:43:59.339Z,21.47
2022-11-24T10:49:04.400Z,12.60
2022-11-24T10:54:09.548Z,11.03
2022-11-24T10:59:21.346Z,10.33
2022-11-24T11:04:25.964Z,12.50
2022-11-24T11:09:27.754Z,15.73
2022-11-24T11:14:30.979Z,17.00
2022-11-24T11:19:54.342Z,13.80
2022-11-24T11:25:16.496Z,13.90
2022-11-24T11:35:46.674Z,12.70
2022-11-24T11:40:49.154Z,48.83
2022-11-24T11:45:57.597Z,53.87
2022-11-24T11:56:25.013Z,18.07
2022-11-24T12:01:35.298Z,13.53
2022-11-24T12:06:54.417Z,16.80
2022-11-24T12:12:04.686Z,21.50
2022-11-24T12:17:07.955Z,14.00
2022-11-24T12:22:14.893Z,18.10
2022-11-24T12:27:23.370Z,15.93
2022-11-24T12:32:34.423Z,12.50
2022-11-24T12:37:48.568Z,17.80
2022-11-24T12:42:52.674Z,26.50
2022-11-24T12:48:11.682Z,25.33
2022-11-24T12:53:16.154Z,17.50
2022-11-24T12:58:20.440Z,25.57
2022-11-24T13:03:30.207Z,25.97
2022-11-24T13:08:33.501Z,22.67
2022-11-24T13:14:01.823Z,20.47
2022-11-24T13:19:09.090Z,13.27
2022-11-24T13:24:21.705Z,15.27
2022-11-24T13:29:31.006Z,33.73
2022-11-24T13:34:55.128Z,22.80
2022-11-24T13:39:59.188Z,15.20
2022-11-24T13:45:01.692Z,11.07
2022-11-24T13:50:04.907Z,16.90
2022-11-24T13:55:38.670Z,19.33
2022-11-24T14:01:07.331Z,17.00
2022-11-24T14:06:17.254Z,13.23
2022-11-24T14:11:20.928Z,31.47
2022-11-24T14:16:23.161Z,85.77
2022-11-24T14:21:27.166Z,68.03
2022-11-24T14:26:32.964Z,29.13
2022-11-24T14:31:34.803Z,46.17
2022-11-24T14:36:36.611Z,22.53
2022-11-24T14:41:39.997Z,14.87
2022-11-24T14:46:41.936Z,13.90
2022-11-24T14:51:44.564Z,14.87
2022-11-24T14:56:58.280Z,17.40
2022-11-24T15:02:00.381Z,13.70
2022-11-24T15:07:05.009Z,29.07
2022-11-24T15:12:09.506Z,24.97
2022-11-24T15:17:16.841Z,11.93
2022-11-24T15:22:43.698Z,17.27
2022-11-24T15:27:46.857Z,40.83
2022-11-24T15:32:50.138Z,22.80
2022-11-24T15:37:52.087Z,10.13
2022-11-24T15:42:56.163Z,13.30
2022-11-24T15:47:57.956Z,16.97
2022-11-24T15:52:59.699Z,13.00
2022-11-24T15:58:02.854Z,14.17
2022-11-24T16:03:23.940Z,14.63
2022-11-24T16:08:26.468Z,12.90
2022-11-24T16:13:29.637Z,11.43
2022-11-24T16:18:35.529Z,14.40
2022-11-24T16:23:37.432Z,7.70
2022-11-24T16:28:40.748Z,11.30
2022-11-24T16:33:44.703Z,14.33
2022-11-24T16:38:46.703Z,8.97
2022-11-24T16:43:49.971Z,14.60
2022-11-24T16:48:53.150Z,26.40
2022-11-24T16:53:57.208Z,14.70
2022-11-24T16:59:00.351Z,12.67
2022-11-24T17:04:02.091Z,12.20
2022-11-24T17:09:04.021Z,8.93
2022-11-24T17:14:07.143Z,16.90
2022-11-24T17:19:09.416Z,12.60
2022-11-24T17:24:15.452Z,15.27
2022-11-24T17:29:19.013Z,11.80
2022-11-24T17:34:21.005Z,15.83
2022-11-24T17:39:25.179Z,44.60
2022-11-24T17:44:28.353Z,16.70
2022-11-24T17:49:30.142Z,14.77
2022-11-24T17:54:45.818Z,13.90
2022-11-24T17:59:51.048Z,13.90
2022-11-24T18:04:52.865Z,13.07
2022-11-24T18:09:54.675Z,21.67
2022-11-24T18:14:57.892Z,16.37
2022-11-24T18:19:59.856Z,16.60
2022-11-24T18:25:01.958Z,17.83
2022-11-24T18:30:08.489Z,15.83
2022-11-24T18:35:10.295Z,14.80
2022-11-24T18:40:12.317Z,37.87
2022-11-24T18:45:15.552Z,39.50
2022-11-24T18:50:17.580Z,72.10
2022-11-24T18:55:20.588Z,193.20
2022-11-24T19:00:24.095Z,160.90
2022-11-24T19:05:25.943Z,206.37
2022-11-24T19:10:27.822Z,180.33
2022-11-24T19:15:33.966Z,247.93
2022-11-24T19:20:35.985Z,188.03
2022-11-24T19:25:37.907Z,55.20
2022-11-24T19:30:41.781Z,29.20
2022-11-24T19:35:43.705Z,32.50
2022-11-24T19:40:45.523Z,29.13
2022-11-24T19:45:48.833Z,22.90
2022-11-24T19:50:58.370Z,29.37
2022-11-24T19:56:03.533Z,34.87
2022-11-24T20:01:07.508Z,30.70
2022-11-24T20:06:10.159Z,30.03
2022-11-24T20:11:12.849Z,24.90
2022-11-24T20:16:16.733Z,28.13
2022-11-24T20:21:19.371Z,24.97
2022-11-24T20:26:23.064Z,27.40
2022-11-24T20:31:27.247Z,27.80
2022-11-24T20:36:29.789Z,32.10
2022-11-24T20:41:32.530Z,31.97
2022-11-24T20:46:36.493Z,28.83
2022-11-24T20:51:39.734Z,29.40
2022-11-24T20:56:42.505Z,30.60
2022-11-24T21:01:46.150Z,26.70
2022-11-24T21:06:48.329Z,29.70
2022-11-24T21:11:50.392Z,28.27
2022-11-24T21:16:53.776Z,28.37
2022-11-24T21:21:55.657Z,26.77
2022-11-24T21:26:57.487Z,31.60
2022-11-24T21:32:00.698Z,26.43
2022-11-24T21:37:02.531Z,27.03
2022-11-24T21:42:04.890Z,26.90
2022-11-24T21:47:08.207Z,26.60
2022-11-24T21:52:10.033Z,35.30
2022-11-24T21:57:11.878Z,38.10
2022-11-24T22:02:15.009Z,28.83
2022-11-24T22:07:16.864Z,25.50
2022-11-24T22:12:18.708Z,32.63
2022-11-24T22:17:21.841Z,39.67
2022-11-24T22:22:23.784Z,29.57
2022-11-24T22:27:25.829Z,33.80
2022-11-24T22:32:29.007Z,24.97
2022-11-24T22:37:30.903Z,25.30
2022-11-24T22:42:32.762Z,23.73
2022-11-24T22:47:35.970Z,30.00
2022-11-24T22:52:38.681Z,23.70
2022-11-24T22:57:42.855Z,30.73
2022-11-24T23:02:48.110Z,29.17
2022-11-24T23:07:49.963Z,32.93
2022-11-24T23:12:51.774Z,32.53
2022-11-24T23:17:55.505Z,33.70
2022-11-24T23:22:57.357Z,33.13
2022-11-24T23:27:59.212Z,32.47
2022-11-24T23:33:02.373Z,27.07
2022-11-24T23:38:08.133Z,30.10
2022-11-24T23:43:10.096Z,34.03
2022-11-24T23:48:13.227Z,28.47
2022-11-24T23:53:15.096Z,30.90
2022-11-24T23:58:17.099Z,24.53
